Aérodrome :
LOGIN :

S'inscrire | Disclaimer

   EN    FR    IT 

 










Légende :    VFR   VFR Marginal   IFR   IFR Intensif   IFR Très Intensif
Visi : 
Plafond : 
>= 8 km
>= 3000ft
5 à 8 km
1000 à 3000 ft
1500m à 5 km
500 à 1000 ft
800 à 1500m
200 à 500 ft
< 800m
< 200 ft
Symboles :   Orages  Brouillard  Fortes neiges  Fortes précipitations  Vent > 20 kt
SIGMETs :   Divers  Orages  Givrage  Turbulence  Onde Orograph.  Cendres Volcan.







- Altitude de l'aérodrome : 289 ft
- Code IATA : ZAD


LDZD - Zadar

DERNIER METAR :
  • 221530Z 15020KT 9999 FEW040 18/08 Q1011 TEMPO 16020G30KT

METARs EXPIRÉS :
  • 221500Z 15019KT 9999 FEW040 18/09 Q1012 TEMPO 16020G30KT
  • 221430Z 15019KT 120V190 9999 FEW040 18/10 Q1012 TEMPO 16020G30KT
  • 221400Z 15018KT 120V190 9999 FEW040 18/11 Q1013 TEMPO 16020G30KT
  • 221330Z 16020KT 9999 FEW040 19/10 Q1013 TEMPO 16020G30KT
  • 221300Z 16021KT 130V190 9999 FEW040 19/09 Q1014 TEMPO 16020G30KT

TAF TAF LDZD
Valide du 22 à 12h jusqu'au 23 à 12h UTC


221125Z 2212/2312 16018KT 9999 SCT040 TX20/2212Z TN11/2303Z
TEMPO 2213/2217 16020G30KT
TEMPO 2223/2305 4000 RA BKN012 OVC030
TEMPO 2300/2312 14025G35KT
Pas de NOTAMs connus pour ce terrain.



MET'MAP, la Météo Aéronautique d'un coup d'oeil ! - Copyright ORBIFLY Décembre 2007 - Disclaimer

ORBIFLY MET'MAP TEAM :

Programmation & Développement : Alexandra Zaïnal
Conception & Développement : Baudouin d'Aumeries
Co-Programmation & Développement : Marc-Olivier Méhu
Soutien technique & logistique : Manuel Goepfert

Contact : metmap@orbifly.com




SOURCES & CREDITS :

   NOAA